createdAt,value
2023-04-28T00:00:04.554Z,61.35
2023-04-28T00:02:32.007Z,61.20
2023-04-28T00:04:59.078Z,61.61
2023-04-28T00:07:26.730Z,61.55
2023-04-28T00:09:53.641Z,61.77
2023-04-28T00:12:20.608Z,62.94
2023-04-28T00:14:47.485Z,63.33
2023-04-28T00:17:14.505Z,63.18
2023-04-28T00:19:42.240Z,62.76
2023-04-28T00:22:12.391Z,62.00
2023-04-28T00:24:41.916Z,62.22
2023-04-28T00:27:08.918Z,61.64
2023-04-28T00:29:38.362Z,61.75
2023-04-28T00:32:05.546Z,62.11
2023-04-28T00:34:37.987Z,62.24
2023-04-28T00:37:04.971Z,62.52
2023-04-28T00:39:34.875Z,63.29
2023-04-28T00:42:02.453Z,62.47
2023-04-28T00:44:29.568Z,63.33
2023-04-28T00:46:59.244Z,63.66
2023-04-28T00:49:26.533Z,64.27
2023-04-28T00:51:53.480Z,63.82
2023-04-28T00:54:22.719Z,63.96
2023-04-28T00:56:52.365Z,63.84
2023-04-28T00:59:19.189Z,64.28
2023-04-28T01:01:49.668Z,64.99
2023-04-28T01:04:21.591Z,64.58
2023-04-28T01:06:49.994Z,65.58
2023-04-28T01:09:19.477Z,65.50
2023-04-28T01:11:46.399Z,65.19
2023-04-28T01:14:13.425Z,65.07
2023-04-28T01:16:46.990Z,64.97
2023-04-28T01:19:22.373Z,64.46
2023-04-28T01:21:50.824Z,65.19
2023-04-28T01:24:20.320Z,65.81
2023-04-28T01:26:47.218Z,65.38
2023-04-28T01:29:14.368Z,66.07
2023-04-28T01:31:43.450Z,65.98
2023-04-28T01:34:15.068Z,66.38
2023-04-28T01:36:42.222Z,66.29
2023-04-28T01:39:12.163Z,66.46
2023-04-28T01:41:43.642Z,66.75
2023-04-28T01:44:13.251Z,66.24
2023-04-28T01:46:40.460Z,66.54
2023-04-28T01:49:07.783Z,67.17
2023-04-28T01:51:34.684Z,66.93
2023-04-28T01:54:01.596Z,66.49
2023-04-28T01:56:28.431Z,67.86
2023-04-28T01:58:55.273Z,68.63
2023-04-28T02:01:22.270Z,68.52
2023-04-28T02:03:52.492Z,68.06
2023-04-28T02:06:19.616Z,67.65
2023-04-28T02:08:46.638Z,67.17
2023-04-28T02:11:13.563Z,68.10
2023-04-28T02:13:43.540Z,68.03
2023-04-28T02:16:10.470Z,69.05
2023-04-28T02:18:37.374Z,68.06
2023-04-28T02:21:12.206Z,68.78
2023-04-28T02:23:40.523Z,67.47
2023-04-28T02:26:10.549Z,68.87
2023-04-28T02:28:39.674Z,69.21
2023-04-28T02:31:13.996Z,69.52
2023-04-28T02:33:42.508Z,69.82
2023-04-28T02:36:10.657Z,68.88
2023-04-28T02:38:41.567Z,69.84
2023-04-28T02:41:09.452Z,68.85
2023-04-28T02:43:37.466Z,69.05
2023-04-28T02:46:05.131Z,68.59
2023-04-28T02:48:36.083Z,68.74
2023-04-28T02:51:03.186Z,69.69
2023-04-28T02:53:32.560Z,69.27
2023-04-28T02:56:04.591Z,69.49
2023-04-28T02:58:34.559Z,69.36
2023-04-28T03:01:04.024Z,69.33
2023-04-28T03:03:31.178Z,70.08
2023-04-28T03:05:58.135Z,69.86
2023-04-28T03:08:25.152Z,69.71
2023-04-28T03:10:52.052Z,75.80
2023-04-28T03:13:18.924Z,84.88
2023-04-28T03:15:45.838Z,80.44
2023-04-28T03:18:13.000Z,78.25
2023-04-28T03:20:42.054Z,78.66
2023-04-28T03:23:09.152Z,75.52
2023-04-28T03:25:36.238Z,73.91
2023-04-28T03:28:03.551Z,72.22
2023-04-28T03:30:30.454Z,71.63
2023-04-28T03:33:01.920Z,70.86
2023-04-28T03:35:33.657Z,69.94
2023-04-28T03:38:03.050Z,69.76
2023-04-28T03:40:30.002Z,70.82
2023-04-28T03:43:00.223Z,70.30
2023-04-28T03:45:27.602Z,70.48
2023-04-28T03:47:56.643Z,70.57
2023-04-28T03:50:26.036Z,71.05
2023-04-28T03:52:53.750Z,69.88
2023-04-28T03:55:22.898Z,70.70
2023-04-28T03:57:52.464Z,70.26
2023-04-28T04:00:19.926Z,70.69
2023-04-28T04:02:52.681Z,70.91
2023-04-28T04:05:20.097Z,70.65
2023-04-28T04:07:47.244Z,71.10
2023-04-28T04:10:16.245Z,70.48
2023-04-28T04:12:43.180Z,69.83
2023-04-28T04:15:10.817Z,70.35
2023-04-28T04:17:38.055Z,69.65
2023-04-28T04:20:06.383Z,69.83
2023-04-28T04:22:33.240Z,70.13
2023-04-28T04:25:02.690Z,69.41
2023-04-28T04:27:31.908Z,69.96
2023-04-28T04:29:58.954Z,70.26
2023-04-28T04:32:25.861Z,69.44
2023-04-28T04:34:52.857Z,69.14
2023-04-28T04:37:22.009Z,69.61
2023-04-28T04:39:55.927Z,68.40
2023-04-28T04:42:27.783Z,67.68
2023-04-28T04:44:57.148Z,66.64
2023-04-28T04:47:24.232Z,66.06
2023-04-28T04:49:53.735Z,66.07
2023-04-28T04:52:20.592Z,65.45
2023-04-28T04:54:52.059Z,63.97
2023-04-28T04:57:19.195Z,63.43
2023-04-28T04:59:46.216Z,62.67
2023-04-28T05:02:13.580Z,60.36
2023-04-28T05:04:40.967Z,59.73
2023-04-28T05:07:08.101Z,60.39
2023-04-28T05:09:37.217Z,59.86
2023-04-28T05:12:04.520Z,59.65
2023-04-28T05:14:31.511Z,58.94
2023-04-28T05:16:58.615Z,57.08
2023-04-28T05:19:25.825Z,57.01
2023-04-28T05:21:54.511Z,55.78
2023-04-28T05:24:26.967Z,55.45
2023-04-28T05:26:54.547Z,54.06
2023-04-28T05:29:22.046Z,53.61
2023-04-28T05:31:49.069Z,52.82
2023-04-28T05:34:18.358Z,53.13
2023-04-28T05:36:45.446Z,52.90
2023-04-28T05:39:12.317Z,52.59
2023-04-28T05:41:39.280Z,51.84
2023-04-28T05:44:08.778Z,52.18
2023-04-28T05:46:36.919Z,52.06
2023-04-28T05:49:03.839Z,51.00
2023-04-28T05:51:33.658Z,51.74
2023-04-28T05:54:00.683Z,51.24
2023-04-28T05:56:30.116Z,51.11
2023-04-28T05:58:58.631Z,52.54
2023-04-28T06:01:25.574Z,51.77
2023-04-28T06:03:56.646Z,51.43
2023-04-28T06:06:24.411Z,51.89
2023-04-28T06:08:51.546Z,50.84
2023-04-28T06:11:22.136Z,51.55
2023-04-28T06:13:53.012Z,51.33
2023-04-28T06:16:23.593Z,50.67
2023-04-28T06:18:50.900Z,50.01
2023-04-28T06:21:17.847Z,49.69
2023-04-28T06:23:44.801Z,49.48
2023-04-28T06:26:12.009Z,50.22
2023-04-28T06:28:43.627Z,49.29
2023-04-28T06:31:10.694Z,49.21
2023-04-28T06:33:40.803Z,48.66
2023-04-28T06:36:08.093Z,49.27
2023-04-28T06:38:34.969Z,49.13
2023-04-28T06:41:05.325Z,48.66
2023-04-28T06:43:33.704Z,48.67
2023-04-28T06:46:01.179Z,48.86
2023-04-28T06:48:28.092Z,48.33
2023-04-28T06:50:57.970Z,47.92
2023-04-28T06:53:24.961Z,49.27
2023-04-28T06:55:52.046Z,48.69
2023-04-28T06:58:19.131Z,49.09
2023-04-28T07:00:46.140Z,48.08
2023-04-28T07:03:13.404Z,46.97
2023-04-28T07:05:40.620Z,47.77
2023-04-28T07:08:10.489Z,46.68
2023-04-28T07:10:40.149Z,46.68
2023-04-28T07:13:10.997Z,45.46
2023-04-28T07:15:40.645Z,43.27
2023-04-28T07:18:11.563Z,43.16
2023-04-28T07:20:40.009Z,42.60
2023-04-28T07:23:08.100Z,42.85
2023-04-28T07:25:38.565Z,42.27
2023-04-28T07:28:06.291Z,41.88
2023-04-28T07:30:36.546Z,41.31
2023-04-28T07:33:03.694Z,41.68
2023-04-28T07:35:30.724Z,41.80
2023-04-28T07:38:01.130Z,41.79
2023-04-28T07:40:28.002Z,41.09
2023-04-28T07:42:54.915Z,40.34
2023-04-28T07:45:21.892Z,39.38
2023-04-28T07:47:51.103Z,39.93
2023-04-28T07:50:18.193Z,39.95
2023-04-28T07:52:45.190Z,40.17
2023-04-28T07:55:12.117Z,40.41
2023-04-28T07:57:42.332Z,41.48
2023-04-28T08:00:09.794Z,40.45
2023-04-28T08:02:36.938Z,39.65
2023-04-28T08:05:04.523Z,38.94
2023-04-28T08:07:34.084Z,40.03
2023-04-28T08:10:01.370Z,39.59
2023-04-28T08:12:28.303Z,39.70
2023-04-28T08:14:55.357Z,38.42
2023-04-28T08:17:22.263Z,38.12
2023-04-28T08:19:51.425Z,37.95
2023-04-28T08:22:20.925Z,37.59
2023-04-28T08:24:47.836Z,37.48
2023-04-28T08:27:19.194Z,36.92
2023-04-28T08:29:48.321Z,38.21
2023-04-28T08:32:15.225Z,38.03
2023-04-28T08:34:42.374Z,37.03
2023-04-28T08:37:09.569Z,37.09
2023-04-28T08:39:38.753Z,36.17
2023-04-28T08:42:08.147Z,37.29
2023-04-28T08:44:41.840Z,36.54
2023-04-28T08:47:16.466Z,37.50
2023-04-28T08:49:47.095Z,37.22
2023-04-28T08:52:17.753Z,37.67
2023-04-28T08:54:47.216Z,37.54
2023-04-28T08:57:14.539Z,37.18
2023-04-28T08:59:42.093Z,36.36
2023-04-28T09:02:09.760Z,36.99
2023-04-28T09:04:37.225Z,37.26
2023-04-28T09:07:04.490Z,37.49
2023-04-28T09:09:34.747Z,37.05
2023-04-28T09:12:05.473Z,36.03
2023-04-28T09:14:35.825Z,36.99
2023-04-28T09:17:09.830Z,37.62
2023-04-28T09:19:45.566Z,37.12
2023-04-28T09:22:24.693Z,37.05
2023-04-28T09:24:55.508Z,37.07
2023-04-28T09:27:28.959Z,36.67
2023-04-28T09:29:58.460Z,37.48
2023-04-28T09:32:27.997Z,37.79
2023-04-28T09:34:59.537Z,36.91
2023-04-28T09:37:30.843Z,35.92
2023-04-28T09:40:08.333Z,36.56
2023-04-28T09:42:40.708Z,36.31
2023-04-28T09:45:09.445Z,35.96
2023-04-28T09:47:43.065Z,36.23
2023-04-28T09:50:14.719Z,36.48
2023-04-28T09:52:45.864Z,36.47
2023-04-28T09:55:15.593Z,36.96
2023-04-28T09:57:49.816Z,36.70
2023-04-28T10:00:20.487Z,36.16
2023-04-28T10:02:51.594Z,35.20
2023-04-28T10:05:22.666Z,35.01
2023-04-28T10:07:50.309Z,34.87
2023-04-28T10:10:17.897Z,35.32
2023-04-28T10:12:45.168Z,34.90
2023-04-28T10:15:16.529Z,34.38
2023-04-28T10:17:47.145Z,33.38
2023-04-28T10:20:16.468Z,34.72
2023-04-28T10:23:39.172Z,34.64
2023-04-28T10:26:14.185Z,34.94
2023-04-28T10:28:55.090Z,35.58
2023-04-28T10:31:23.025Z,36.15
2023-04-28T10:33:50.554Z,34.63
2023-04-28T10:36:51.020Z,34.26
2023-04-28T10:39:18.513Z,34.31
2023-04-28T10:41:47.857Z,35.27
2023-04-28T10:44:44.527Z,35.64
2023-04-28T10:47:11.869Z,36.19
2023-04-28T10:50:09.098Z,35.62
2023-04-28T10:52:39.662Z,35.47
2023-04-28T10:55:39.986Z,35.77
2023-04-28T10:58:29.890Z,35.88
2023-04-28T11:01:24.836Z,35.59
2023-04-28T11:04:04.856Z,34.96
2023-04-28T11:06:40.618Z,35.44
2023-04-28T11:09:17.517Z,34.63
2023-04-28T11:12:07.031Z,35.84
2023-04-28T11:14:38.019Z,36.83
2023-04-28T11:17:13.084Z,35.99
2023-04-28T11:19:45.323Z,35.07
2023-04-28T11:22:21.831Z,35.72
2023-04-28T11:25:03.012Z,35.34
2023-04-28T11:27:34.640Z,35.46
2023-04-28T11:30:01.995Z,35.11
2023-04-28T11:32:36.633Z,35.85
2023-04-28T11:35:09.709Z,35.41
2023-04-28T11:37:37.262Z,35.81
2023-04-28T11:40:14.801Z,35.00
2023-04-28T11:42:51.375Z,34.64
2023-04-28T11:45:20.854Z,34.51
2023-04-28T11:47:47.713Z,34.33
2023-04-28T11:50:17.703Z,33.19
2023-04-28T11:52:53.590Z,32.57
2023-04-28T11:55:20.752Z,32.64
2023-04-28T11:58:00.454Z,32.53
2023-04-28T12:00:28.292Z,33.96
2023-04-28T12:02:58.444Z,34.06
2023-04-28T12:05:30.291Z,33.77
2023-04-28T12:07:57.228Z,34.22
2023-04-28T12:10:26.353Z,33.91
2023-04-28T12:12:56.180Z,34.23
2023-04-28T12:15:24.761Z,34.91
2023-04-28T12:17:52.191Z,35.25
2023-04-28T12:20:37.160Z,35.75
2023-04-28T12:23:11.245Z,35.34
2023-04-28T12:25:46.259Z,35.64
2023-04-28T12:28:17.729Z,35.96
2023-04-28T12:30:44.663Z,36.76
2023-04-28T12:33:28.868Z,36.87
2023-04-28T12:35:59.710Z,37.34
2023-04-28T12:38:28.336Z,36.71
2023-04-28T12:40:57.433Z,36.49
2023-04-28T12:43:28.214Z,36.08
2023-04-28T12:45:56.488Z,36.45
2023-04-28T12:48:25.771Z,36.94
2023-04-28T12:50:54.957Z,37.22
2023-04-28T12:53:21.866Z,37.23
2023-04-28T12:55:48.815Z,37.83
2023-04-28T12:58:18.385Z,37.60
2023-04-28T13:00:45.265Z,37.37
2023-04-28T13:03:12.822Z,37.15
2023-04-28T13:05:44.643Z,38.64
2023-04-28T13:08:12.367Z,38.87
2023-04-28T13:10:40.624Z,38.55
2023-04-28T13:13:09.787Z,38.02
2023-04-28T13:15:38.729Z,39.22
2023-04-28T13:18:11.322Z,38.07
2023-04-28T13:20:38.350Z,38.58
2023-04-28T13:23:05.230Z,38.73
2023-04-28T13:25:32.080Z,38.44
2023-04-28T13:27:58.947Z,38.35
2023-04-28T13:30:26.681Z,38.83
2023-04-28T13:32:54.938Z,38.73
2023-04-28T13:35:26.258Z,39.25
2023-04-28T13:37:56.408Z,40.25
2023-04-28T13:40:28.052Z,40.25
2023-04-28T13:42:55.452Z,39.15
2023-04-28T13:45:26.405Z,39.16
2023-04-28T13:47:57.240Z,39.50
2023-04-28T13:50:24.181Z,38.86
2023-04-28T13:52:55.674Z,40.02
2023-04-28T13:55:28.271Z,39.75
2023-04-28T13:58:01.525Z,39.01
2023-04-28T14:00:32.242Z,39.27
2023-04-28T14:03:02.960Z,39.99
2023-04-28T14:05:36.105Z,40.38
2023-04-28T14:08:11.690Z,39.44
2023-04-28T14:10:38.564Z,40.35
2023-04-28T14:13:05.564Z,40.21
2023-04-28T14:15:33.144Z,40.28
2023-04-28T14:18:03.196Z,40.64
2023-04-28T14:20:31.263Z,40.03
2023-04-28T14:22:59.494Z,40.45
2023-04-28T14:25:31.637Z,40.40
2023-04-28T14:27:58.888Z,40.68
2023-04-28T14:30:28.524Z,41.41
2023-04-28T14:32:55.708Z,41.32
2023-04-28T14:35:24.987Z,41.10
2023-04-28T14:37:54.523Z,41.17
2023-04-28T14:40:24.723Z,40.67
2023-04-28T14:42:54.747Z,40.00
2023-04-28T14:45:22.033Z,39.90
2023-04-28T14:47:49.738Z,39.74
2023-04-28T14:50:16.809Z,39.96
2023-04-28T14:52:44.150Z,40.52
2023-04-28T14:55:11.102Z,41.26
2023-04-28T14:57:38.387Z,40.31
2023-04-28T15:00:08.097Z,40.35
2023-04-28T15:02:38.890Z,40.69
2023-04-28T15:05:06.597Z,41.38
2023-04-28T15:07:33.789Z,42.27
2023-04-28T15:10:01.011Z,42.98
2023-04-28T15:12:30.561Z,41.96
2023-04-28T15:14:58.439Z,42.40
2023-04-28T15:17:25.564Z,41.95
2023-04-28T15:19:54.749Z,41.97
2023-04-28T15:22:24.806Z,42.15
2023-04-28T15:24:52.285Z,43.27
2023-04-28T15:27:23.179Z,43.82
2023-04-28T15:29:53.585Z,43.68
2023-04-28T15:32:20.560Z,43.91
2023-04-28T15:34:52.818Z,43.73
2023-04-28T15:37:38.865Z,43.61
2023-04-28T15:40:11.724Z,43.43
2023-04-28T15:42:49.034Z,43.08
2023-04-28T15:45:22.045Z,43.25
2023-04-28T15:47:50.827Z,43.28
2023-04-28T15:50:20.395Z,43.42
2023-04-28T15:52:49.724Z,42.94
2023-04-28T15:55:19.190Z,43.08
2023-04-28T15:57:54.337Z,42.78
2023-04-28T16:00:23.778Z,43.17
2023-04-28T16:02:53.969Z,43.74
2023-04-28T16:05:21.114Z,44.90
2023-04-28T16:07:48.580Z,45.25
2023-04-28T16:10:16.907Z,46.08
2023-04-28T16:12:43.998Z,45.81
2023-04-28T16:15:13.211Z,45.83
2023-04-28T16:17:41.201Z,46.43
2023-04-28T16:20:13.404Z,46.91
2023-04-28T16:22:41.360Z,47.66
2023-04-28T16:25:11.944Z,47.39
2023-04-28T16:27:42.995Z,48.29
2023-04-28T16:30:12.390Z,47.78
2023-04-28T16:32:41.965Z,48.35
2023-04-28T16:35:15.462Z,48.30
2023-04-28T16:37:43.317Z,49.26
2023-04-28T16:40:13.463Z,49.14
2023-04-28T16:42:41.983Z,48.80
2023-04-28T16:45:09.914Z,49.47
2023-04-28T16:47:36.967Z,48.67
2023-04-28T16:50:06.710Z,49.14
2023-04-28T16:52:33.738Z,49.73
2023-04-28T16:55:00.828Z,49.17
2023-04-28T16:57:30.038Z,49.31
2023-04-28T16:59:56.981Z,49.63
2023-04-28T17:02:29.638Z,50.38
2023-04-28T17:04:57.002Z,50.53
2023-04-28T17:07:25.598Z,51.44
2023-04-28T17:09:52.957Z,52.25
2023-04-28T17:12:21.048Z,52.45
2023-04-28T17:14:48.078Z,54.16
2023-04-28T17:17:18.167Z,54.35
2023-04-28T17:19:45.386Z,55.19
2023-04-28T17:22:12.659Z,54.77
2023-04-28T17:24:41.869Z,55.54
2023-04-28T17:27:11.713Z,55.92
2023-04-28T17:29:38.714Z,55.52
2023-04-28T17:32:05.907Z,54.47
2023-04-28T17:34:35.779Z,54.59
2023-04-28T17:37:02.708Z,53.93
2023-04-28T17:39:29.750Z,54.20
2023-04-28T17:42:00.382Z,54.67
2023-04-28T17:44:27.437Z,54.73
2023-04-28T17:46:56.768Z,54.94
2023-04-28T17:49:27.177Z,55.07
2023-04-28T17:51:54.129Z,55.20
2023-04-28T17:54:26.722Z,54.92
2023-04-28T17:56:54.803Z,55.13
2023-04-28T17:59:24.711Z,55.69
2023-04-28T18:01:56.220Z,55.26
2023-04-28T18:04:26.221Z,56.12
2023-04-28T18:06:53.134Z,58.87
2023-04-28T18:09:22.801Z,60.77
2023-04-28T18:11:49.756Z,64.21
2023-04-28T18:14:18.531Z,66.70
2023-04-28T18:16:45.598Z,68.79
2023-04-28T18:19:15.112Z,69.02
2023-04-28T18:21:46.580Z,71.19
2023-04-28T18:24:16.495Z,71.41
2023-04-28T18:26:45.874Z,73.55
2023-04-28T18:29:12.944Z,75.36
2023-04-28T18:31:42.612Z,75.98
2023-04-28T18:34:09.759Z,76.65
2023-04-28T18:36:37.175Z,76.20
2023-04-28T18:39:08.743Z,76.45
2023-04-28T18:41:41.410Z,75.97
2023-04-28T18:44:10.631Z,74.89
2023-04-28T18:46:43.297Z,75.50
2023-04-28T18:49:12.760Z,74.77
2023-04-28T18:51:39.680Z,75.61
2023-04-28T18:54:08.838Z,76.08
2023-04-28T18:56:36.660Z,74.88
2023-04-28T18:59:09.561Z,75.96
2023-04-28T19:01:37.365Z,76.54
2023-04-28T19:04:05.076Z,74.54
2023-04-28T19:06:32.095Z,76.31
2023-04-28T19:08:59.241Z,77.02
2023-04-28T19:11:26.702Z,75.91
2023-04-28T19:13:54.317Z,76.16
2023-04-28T19:16:21.402Z,77.66
2023-04-28T19:18:53.158Z,77.82
2023-04-28T19:21:20.155Z,79.37
2023-04-28T19:23:51.812Z,79.05
2023-04-28T19:26:21.793Z,79.24
2023-04-28T19:28:48.716Z,79.47
2023-04-28T19:31:16.345Z,79.66
2023-04-28T19:33:45.622Z,80.63
2023-04-28T19:36:12.524Z,82.18
2023-04-28T19:38:40.253Z,80.10
2023-04-28T19:41:11.815Z,81.74
2023-04-28T19:43:38.730Z,82.24
2023-04-28T19:46:05.651Z,82.23
2023-04-28T19:48:32.659Z,81.13
2023-04-28T19:50:59.510Z,80.15
2023-04-28T19:53:26.420Z,79.32
2023-04-28T19:55:53.256Z,80.08
2023-04-28T19:58:20.787Z,80.35
2023-04-28T20:00:50.061Z,79.90
2023-04-28T20:03:17.506Z,80.90
2023-04-28T20:05:44.489Z,82.41
2023-04-28T20:08:12.737Z,81.42
2023-04-28T20:10:40.035Z,81.14
2023-04-28T20:13:10.065Z,82.21
2023-04-28T20:15:37.692Z,82.13
2023-04-28T20:18:04.675Z,81.41
2023-04-28T20:20:31.589Z,83.13
2023-04-28T20:22:58.464Z,83.70
2023-04-28T20:25:28.072Z,84.51
2023-04-28T20:27:58.038Z,88.21
2023-04-28T20:30:27.709Z,89.03
2023-04-28T20:32:54.847Z,90.09
2023-04-28T20:35:23.013Z,89.97
2023-04-28T20:37:49.917Z,89.90
2023-04-28T20:40:21.385Z,90.54
2023-04-28T20:42:49.482Z,89.47
2023-04-28T20:45:18.369Z,89.22
2023-04-28T20:47:45.385Z,89.08
2023-04-28T20:50:15.621Z,88.94
2023-04-28T20:52:45.634Z,88.69
2023-04-28T20:55:12.536Z,87.74
2023-04-28T20:57:42.452Z,87.81
2023-04-28T21:00:10.593Z,88.22
2023-04-28T21:02:37.884Z,87.87
2023-04-28T21:05:07.674Z,88.57
2023-04-28T21:07:34.554Z,88.87
2023-04-28T21:10:01.483Z,88.74
2023-04-28T21:12:28.344Z,87.83
2023-04-28T21:14:55.263Z,89.35
2023-04-28T21:17:22.144Z,89.43
2023-04-28T21:19:49.484Z,87.49
2023-04-28T21:22:16.666Z,86.69
2023-04-28T21:24:46.118Z,86.97
2023-04-28T21:27:12.959Z,87.84
2023-04-28T21:29:39.877Z,87.98
2023-04-28T21:32:06.787Z,89.73
2023-04-28T21:34:38.200Z,90.34
2023-04-28T21:37:08.146Z,90.67
2023-04-28T21:39:37.220Z,89.88
2023-04-28T21:42:09.147Z,91.37
2023-04-28T21:44:38.527Z,91.34
2023-04-28T21:47:08.985Z,91.22
2023-04-28T21:49:36.228Z,90.62
2023-04-28T21:52:06.228Z,90.94
2023-04-28T21:54:33.144Z,90.96
2023-04-28T21:57:00.044Z,90.98
2023-04-28T21:59:26.900Z,92.60
2023-04-28T22:01:57.005Z,91.39
2023-04-28T22:04:24.041Z,91.83
2023-04-28T22:06:51.055Z,92.04
2023-04-28T22:09:20.477Z,91.49
2023-04-28T22:11:47.405Z,91.58
2023-04-28T22:14:34.952Z,92.59
2023-04-28T22:17:03.519Z,92.89
2023-04-28T22:19:30.378Z,92.71
2023-04-28T22:21:57.779Z,92.74
2023-04-28T22:24:24.658Z,92.45
2023-04-28T22:26:51.521Z,92.72
2023-04-28T22:29:20.825Z,94.82
2023-04-28T22:31:47.808Z,93.64
2023-04-28T22:34:18.084Z,93.81
2023-04-28T22:36:47.745Z,94.11
2023-04-28T22:39:17.111Z,95.06
2023-04-28T22:41:43.968Z,95.48
2023-04-28T22:44:10.910Z,96.25
2023-04-28T22:46:40.076Z,95.13
2023-04-28T22:49:07.149Z,96.12
2023-04-28T22:51:35.653Z,94.90
2023-04-28T22:54:02.979Z,95.64
2023-04-28T22:56:32.331Z,95.61
2023-04-28T22:58:59.216Z,95.65
2023-04-28T23:01:29.183Z,95.24
2023-04-28T23:03:58.407Z,95.51
2023-04-28T23:06:28.744Z,95.47
2023-04-28T23:08:56.065Z,96.65
2023-04-28T23:11:24.174Z,96.30
2023-04-28T23:13:54.228Z,96.31
2023-04-28T23:16:21.389Z,96.18
2023-04-28T23:18:50.464Z,96.33
2023-04-28T23:21:17.330Z,96.32
2023-04-28T23:23:46.409Z,96.80
2023-04-28T23:26:13.658Z,95.92
2023-04-28T23:28:43.782Z,96.52
2023-04-28T23:31:10.760Z,97.23
2023-04-28T23:33:40.183Z,95.78
2023-04-28T23:36:09.738Z,96.22
2023-04-28T23:38:38.938Z,95.76
2023-04-28T23:41:06.526Z,97.25
2023-04-28T23:43:33.559Z,96.08
2023-04-28T23:46:00.553Z,97.14
2023-04-28T23:48:29.598Z,95.98
2023-04-28T23:50:58.927Z,97.83
2023-04-28T23:53:25.946Z,97.08
2023-04-28T23:55:55.292Z,96.49
2023-04-28T23:58:22.138Z,96.34
